createdAt,value
2017-11-08T00:01:20.534Z,27.80
2017-11-08T00:03:50.370Z,33.70
2017-11-08T00:06:20.235Z,27.87
2017-11-08T00:08:50.084Z,27.90
2017-11-08T00:11:19.933Z,28.57
2017-11-08T00:13:49.788Z,32.67
2017-11-08T00:16:19.611Z,29.80
2017-11-08T00:18:49.483Z,24.33
2017-11-08T00:21:21.232Z,33.43
2017-11-08T00:23:51.046Z,30.97
2017-11-08T00:26:20.888Z,31.37
2017-11-08T00:28:50.759Z,28.90
2017-11-08T00:31:20.611Z,32.27
2017-11-08T00:33:50.450Z,34.50
2017-11-08T00:36:20.291Z,30.80
2017-11-08T00:38:50.127Z,41.60
2017-11-08T00:41:19.977Z,31.93
2017-11-08T00:43:49.830Z,35.37
2017-11-08T00:46:19.676Z,38.07
2017-11-08T00:48:49.494Z,40.37
2017-11-08T00:51:19.343Z,38.93
2017-11-08T00:53:49.191Z,32.03
2017-11-08T00:56:19.038Z,40.83
2017-11-08T00:58:48.876Z,36.50
2017-11-08T01:01:18.754Z,38.97
2017-11-08T01:03:48.599Z,40.53
2017-11-08T01:06:18.479Z,41.97
2017-11-08T01:08:48.330Z,41.00
2017-11-08T01:11:18.174Z,37.27
2017-11-08T01:13:48.019Z,40.97
2017-11-08T01:16:17.858Z,48.70
2017-11-08T01:18:47.714Z,38.60
2017-11-08T01:21:17.553Z,41.03
2017-11-08T01:23:47.411Z,38.40
2017-11-08T01:26:17.255Z,35.83
2017-11-08T01:28:47.107Z,34.03
2017-11-08T01:31:16.947Z,39.90
2017-11-08T01:33:46.843Z,38.27
2017-11-08T01:36:16.667Z,40.50
2017-11-08T01:38:46.519Z,41.10
2017-11-08T01:41:22.091Z,41.90
2017-11-08T01:43:54.964Z,41.37
2017-11-08T01:46:24.814Z,42.67
2017-11-08T01:48:54.636Z,45.10
2017-11-08T01:51:24.493Z,44.53
2017-11-08T01:53:54.330Z,40.03
2017-11-08T01:56:24.187Z,38.53
2017-11-08T01:58:54.013Z,36.07
2017-11-08T02:01:23.874Z,38.33
2017-11-08T02:03:53.835Z,38.80
2017-11-08T02:06:23.679Z,37.37
2017-11-08T02:08:53.500Z,43.17
2017-11-08T02:11:23.368Z,40.93
2017-11-08T02:13:53.183Z,40.00
2017-11-08T02:16:23.038Z,40.13
2017-11-08T02:18:54.714Z,45.03
2017-11-08T02:21:24.531Z,44.73
2017-11-08T02:23:54.358Z,40.27
2017-11-08T02:26:30.030Z,40.93
2017-11-08T02:28:59.877Z,46.67
2017-11-08T02:31:29.845Z,40.80
2017-11-08T02:33:59.715Z,41.50
2017-11-08T02:36:29.537Z,40.20
2017-11-08T02:38:59.387Z,39.47
2017-11-08T02:41:29.208Z,44.90
2017-11-08T02:43:59.056Z,43.67
2017-11-08T02:46:28.888Z,54.73
2017-11-08T02:48:58.735Z,45.13
2017-11-08T02:51:28.623Z,44.57
2017-11-08T02:53:58.498Z,39.90
2017-11-08T02:56:28.331Z,42.50
2017-11-08T02:58:58.167Z,44.07
2017-11-08T03:01:28.034Z,47.00
2017-11-08T03:03:57.894Z,42.97
2017-11-08T03:06:27.758Z,46.70
2017-11-08T03:08:57.591Z,41.27
2017-11-08T03:11:27.450Z,46.90
2017-11-08T03:13:57.275Z,47.40
2017-11-08T03:16:27.153Z,47.30
2017-11-08T03:18:57.035Z,45.30
2017-11-08T03:21:27.734Z,51.70
2017-11-08T03:23:57.572Z,51.37
2017-11-08T03:26:27.409Z,47.40
2017-11-08T03:28:57.226Z,47.37
2017-11-08T03:31:27.110Z,48.17
2017-11-08T03:33:56.945Z,48.13
2017-11-08T03:36:26.794Z,49.23
2017-11-08T03:38:56.667Z,45.53
2017-11-08T03:41:26.491Z,50.20
2017-11-08T03:43:56.339Z,48.50
2017-11-08T03:46:26.176Z,57.70
2017-11-08T03:48:56.044Z,53.50
2017-11-08T03:51:25.858Z,46.63
2017-11-08T03:53:55.714Z,52.20
2017-11-08T03:56:25.555Z,45.03
2017-11-08T03:58:55.398Z,46.67
2017-11-08T04:01:25.219Z,46.43
2017-11-08T04:03:55.061Z,48.60
2017-11-08T04:06:24.889Z,51.43
2017-11-08T04:08:54.735Z,51.03
2017-11-08T04:11:24.553Z,50.77
2017-11-08T04:13:54.409Z,51.37
2017-11-08T04:16:24.247Z,51.37
2017-11-08T04:18:54.117Z,56.23
2017-11-08T04:21:23.981Z,52.63
2017-11-08T04:23:53.799Z,51.40
2017-11-08T04:26:23.651Z,53.27
2017-11-08T04:28:53.476Z,49.33
2017-11-08T04:31:23.319Z,60.27
2017-11-08T04:33:53.164Z,56.80
2017-11-08T04:36:23.010Z,53.40
2017-11-08T04:38:52.838Z,54.83
2017-11-08T04:41:22.700Z,56.60
2017-11-08T04:43:52.560Z,49.70
2017-11-08T04:46:22.392Z,52.50
2017-11-08T04:48:52.302Z,56.37
2017-11-08T04:51:22.147Z,54.97
2017-11-08T04:53:51.974Z,53.43
2017-11-08T04:56:21.826Z,57.40
2017-11-08T04:58:51.678Z,57.00
2017-11-08T05:01:21.538Z,52.10
2017-11-08T05:03:51.403Z,57.80
2017-11-08T05:06:21.222Z,54.00
2017-11-08T05:08:51.076Z,55.83
2017-11-08T05:11:20.934Z,48.47
2017-11-08T05:13:50.790Z,49.63
2017-11-08T05:16:20.671Z,52.40
2017-11-08T05:18:50.523Z,48.60
2017-11-08T05:21:20.355Z,50.03
2017-11-08T05:23:50.204Z,57.43
2017-11-08T05:26:20.123Z,52.07
2017-11-08T05:28:49.987Z,54.00
2017-11-08T05:31:19.819Z,56.13
2017-11-08T05:33:49.758Z,54.87
2017-11-08T05:36:19.905Z,54.47
2017-11-08T05:38:49.766Z,64.70
2017-11-08T05:41:19.623Z,59.33
2017-11-08T05:43:49.491Z,62.50
2017-11-08T05:46:19.333Z,55.37
2017-11-08T05:48:49.183Z,57.27
2017-11-08T05:51:19.018Z,61.90
2017-11-08T05:53:48.859Z,58.73
2017-11-08T05:56:18.713Z,56.23
2017-11-08T05:58:48.562Z,59.20
2017-11-08T06:01:18.401Z,55.33
2017-11-08T06:03:48.230Z,60.60
2017-11-08T06:06:18.118Z,61.67
2017-11-08T06:08:47.941Z,55.67
2017-11-08T06:11:17.808Z,67.00
2017-11-08T06:13:47.634Z,77.13
2017-11-08T06:16:17.506Z,70.87
2017-11-08T06:18:47.348Z,76.77
2017-11-08T06:21:17.190Z,64.97
2017-11-08T06:23:47.037Z,68.80
2017-11-08T06:26:16.858Z,74.97
2017-11-08T06:28:46.742Z,66.97
2017-11-08T06:31:16.567Z,67.13
2017-11-08T06:33:46.602Z,68.93
2017-11-08T06:36:16.520Z,70.60
2017-11-08T06:38:46.388Z,65.33
2017-11-08T06:41:16.246Z,66.77
2017-11-08T06:43:46.110Z,75.83
2017-11-08T06:46:16.035Z,77.40
2017-11-08T06:48:45.880Z,69.07
2017-11-08T06:51:15.727Z,67.33
2017-11-08T06:53:45.563Z,65.40
2017-11-08T06:56:15.432Z,68.50
2017-11-08T06:58:45.266Z,62.43
2017-11-08T07:01:15.150Z,67.27
2017-11-08T07:03:44.971Z,63.93
2017-11-08T07:06:14.822Z,66.60
2017-11-08T07:08:44.680Z,64.57
2017-11-08T07:11:14.518Z,62.00
2017-11-08T07:13:44.439Z,68.70
2017-11-08T07:16:14.315Z,66.10
2017-11-08T07:18:44.157Z,63.97
2017-11-08T07:21:14.023Z,66.07
2017-11-08T07:23:43.872Z,61.00
2017-11-08T07:26:13.719Z,60.67
2017-11-08T07:28:43.582Z,60.50
2017-11-08T07:31:13.418Z,58.40
2017-11-08T07:33:43.309Z,60.20
2017-11-08T07:36:13.147Z,55.53
2017-11-08T07:38:43.013Z,64.20
2017-11-08T07:41:12.906Z,54.27
2017-11-08T07:43:42.777Z,58.00
2017-11-08T07:46:12.593Z,62.90
2017-11-08T07:48:42.500Z,60.53
2017-11-08T07:51:12.367Z,58.83
2017-11-08T07:53:45.043Z,58.53
2017-11-08T07:56:14.857Z,59.63
2017-11-08T07:58:44.701Z,56.50
2017-11-08T08:01:14.564Z,55.70
2017-11-08T08:03:44.493Z,62.37
2017-11-08T08:06:14.338Z,57.40
2017-11-08T08:08:44.197Z,65.10
2017-11-08T08:11:19.988Z,57.43
2017-11-08T08:13:49.869Z,58.37
2017-11-08T08:16:19.726Z,63.27
2017-11-08T08:18:49.590Z,58.40
2017-11-08T08:21:23.450Z,62.50
2017-11-08T08:23:53.303Z,59.50
2017-11-08T08:26:28.869Z,59.33
2017-11-08T08:28:58.682Z,62.07
2017-11-08T08:31:28.575Z,59.83
2017-11-08T08:33:58.410Z,55.40
2017-11-08T08:36:28.254Z,60.00
2017-11-08T08:38:58.137Z,56.60
2017-11-08T08:41:27.990Z,58.07
2017-11-08T08:43:57.844Z,59.37
2017-11-08T08:46:27.777Z,59.00
2017-11-08T08:48:58.043Z,58.70
2017-11-08T08:51:27.953Z,60.53
2017-11-08T08:53:57.942Z,59.90
2017-11-08T08:56:27.801Z,62.37
2017-11-08T08:58:57.651Z,59.23
2017-11-08T09:01:27.497Z,57.90
2017-11-08T09:03:57.341Z,60.37
2017-11-08T09:06:27.174Z,68.80
2017-11-08T09:08:57.058Z,58.10
2017-11-08T09:11:26.915Z,62.23
2017-11-08T09:13:56.770Z,62.83
2017-11-08T09:16:26.599Z,62.13
2017-11-08T09:18:56.467Z,64.00
2017-11-08T09:21:26.382Z,64.30
2017-11-08T09:24:00.179Z,74.23
2017-11-08T09:26:30.036Z,64.93
2017-11-08T09:29:06.567Z,67.93
2017-11-08T09:31:36.421Z,68.63
2017-11-08T09:34:06.266Z,71.33
2017-11-08T09:36:36.110Z,69.70
2017-11-08T09:39:05.920Z,65.77
2017-11-08T09:41:35.799Z,80.10
2017-11-08T09:44:05.654Z,73.63
2017-11-08T09:46:35.525Z,66.87
2017-11-08T09:49:05.343Z,64.87
2017-11-08T09:51:35.189Z,67.87
2017-11-08T09:54:08.982Z,71.63
2017-11-08T09:56:38.852Z,66.13
2017-11-08T09:59:11.582Z,65.63
2017-11-08T10:01:41.436Z,63.03
2017-11-08T10:04:11.305Z,68.67
2017-11-08T10:06:41.173Z,77.97
2017-11-08T10:09:12.873Z,74.93
2017-11-08T10:11:48.614Z,65.77
2017-11-08T10:14:18.431Z,74.27
2017-11-08T10:16:49.233Z,67.57
2017-11-08T10:19:19.069Z,67.37
2017-11-08T10:21:49.802Z,72.70
2017-11-08T10:24:19.598Z,68.30
2017-11-08T10:26:49.815Z,68.77
2017-11-08T10:29:20.170Z,68.30
2017-11-08T10:31:50.021Z,56.80
2017-11-08T10:34:19.887Z,60.87
2017-11-08T10:36:49.706Z,57.60
2017-11-08T10:39:19.548Z,64.33
2017-11-08T10:41:49.390Z,71.67
2017-11-08T10:44:19.244Z,72.07
2017-11-08T10:46:49.071Z,72.07
2017-11-08T10:49:20.905Z,70.73
2017-11-08T10:51:50.771Z,66.90
2017-11-08T10:54:20.642Z,78.03
2017-11-08T10:56:52.262Z,75.33
2017-11-08T10:59:28.560Z,68.47
2017-11-08T11:01:58.454Z,66.53
2017-11-08T11:04:28.359Z,61.87
2017-11-08T11:06:59.176Z,59.83
2017-11-08T11:09:29.032Z,66.00
2017-11-08T11:11:58.861Z,65.60
2017-11-08T11:14:28.708Z,66.87
2017-11-08T11:16:58.547Z,73.97
2017-11-08T11:19:28.442Z,62.00
2017-11-08T11:22:02.149Z,66.77
2017-11-08T11:24:33.874Z,69.67
2017-11-08T11:27:09.561Z,64.63
2017-11-08T11:29:39.467Z,64.00
2017-11-08T11:32:11.125Z,66.33
2017-11-08T11:34:40.982Z,69.10
2017-11-08T11:37:10.837Z,65.10
2017-11-08T11:39:40.738Z,69.17
2017-11-08T11:42:10.619Z,66.13
2017-11-08T11:44:41.212Z,70.00
2017-11-08T11:47:11.075Z,68.23
2017-11-08T11:49:40.895Z,67.67
2017-11-08T11:52:10.740Z,71.00
2017-11-08T11:54:40.657Z,71.43
2017-11-08T11:57:10.502Z,64.17
2017-11-08T11:59:40.368Z,68.00
2017-11-08T12:02:10.195Z,67.63
2017-11-08T12:04:40.049Z,77.37
2017-11-08T12:07:09.900Z,77.10
2017-11-08T12:09:39.841Z,75.43
2017-11-08T12:12:10.121Z,84.20
2017-11-08T12:14:39.976Z,75.57
2017-11-08T12:17:09.805Z,81.53
2017-11-08T12:19:39.733Z,72.40
2017-11-08T12:22:09.581Z,66.63
2017-11-08T12:24:39.439Z,78.07
2017-11-08T12:27:11.160Z,73.03
2017-11-08T12:29:41.032Z,72.30
2017-11-08T12:32:10.871Z,68.30
2017-11-08T12:34:40.719Z,63.40
2017-11-08T12:37:10.589Z,69.07
2017-11-08T12:39:40.427Z,58.83
2017-11-08T12:42:13.238Z,72.97
2017-11-08T12:44:48.862Z,66.43
2017-11-08T12:47:18.695Z,64.73
2017-11-08T12:49:48.511Z,68.10
2017-11-08T12:52:18.390Z,73.60
2017-11-08T12:54:48.228Z,72.83
2017-11-08T12:57:18.094Z,73.93
2017-11-08T12:59:47.952Z,70.33
2017-11-08T13:02:17.775Z,67.90
2017-11-08T13:04:47.612Z,69.80
2017-11-08T13:07:17.508Z,65.03
2017-11-08T13:09:47.354Z,71.03
2017-11-08T13:12:17.167Z,72.00
2017-11-08T13:14:47.042Z,69.80
2017-11-08T13:17:16.958Z,72.43
2017-11-08T13:19:46.792Z,64.57
2017-11-08T13:22:16.679Z,66.30
2017-11-08T13:24:46.519Z,63.27
2017-11-08T13:27:16.390Z,66.90
2017-11-08T13:29:46.234Z,67.13
2017-11-08T13:32:16.060Z,67.13
2017-11-08T13:34:46.875Z,71.40
2017-11-08T13:37:16.730Z,72.83
2017-11-08T13:39:50.373Z,65.53
2017-11-08T13:42:20.200Z,65.27
2017-11-08T13:44:50.040Z,71.73
2017-11-08T13:47:19.886Z,73.87
2017-11-08T13:49:49.756Z,72.60
2017-11-08T13:52:19.624Z,73.43
2017-11-08T13:54:49.479Z,69.20
2017-11-08T13:57:19.352Z,69.57
2017-11-08T13:59:49.224Z,66.77
2017-11-08T14:02:19.066Z,67.37
2017-11-08T14:04:48.887Z,67.03
2017-11-08T14:07:18.731Z,70.53
2017-11-08T14:09:48.857Z,69.93
2017-11-08T14:12:18.744Z,67.40
2017-11-08T14:14:48.564Z,70.87
2017-11-08T14:17:18.468Z,65.37
2017-11-08T14:19:48.297Z,65.23
2017-11-08T14:22:18.129Z,72.00
2017-11-08T14:24:48.017Z,68.73
2017-11-08T14:27:17.938Z,64.27
2017-11-08T14:29:54.672Z,67.47
2017-11-08T14:32:25.750Z,65.00
2017-11-08T14:34:55.866Z,62.40
2017-11-08T14:37:25.682Z,65.10
2017-11-08T14:39:55.537Z,73.77
2017-11-08T14:42:28.221Z,71.73
2017-11-08T14:44:58.100Z,67.57
2017-11-08T14:47:27.916Z,70.03
2017-11-08T14:49:57.763Z,66.07
2017-11-08T14:52:27.597Z,74.63
2017-11-08T14:54:57.404Z,68.50
2017-11-08T14:57:27.267Z,71.57
2017-11-08T14:59:57.074Z,68.13
2017-11-08T15:02:26.926Z,68.40
2017-11-08T15:04:56.750Z,68.10
2017-11-08T15:07:26.608Z,66.27
2017-11-08T15:09:56.454Z,72.63
2017-11-08T15:12:31.988Z,60.20
2017-11-08T15:15:02.740Z,70.20
2017-11-08T15:17:32.583Z,71.37
2017-11-08T15:20:02.835Z,79.50
2017-11-08T15:22:33.565Z,70.57
2017-11-08T15:25:03.388Z,63.33
2017-11-08T15:27:33.239Z,68.10
2017-11-08T15:30:03.898Z,67.10
2017-11-08T15:32:36.400Z,58.07
2017-11-08T15:35:06.373Z,56.17
2017-11-08T15:37:38.161Z,56.30
2017-11-08T15:40:09.013Z,57.77
2017-11-08T15:42:39.676Z,53.27
2017-11-08T15:45:09.547Z,59.57
2017-11-08T15:47:39.356Z,54.47
2017-11-08T15:50:09.257Z,51.33
2017-11-08T15:52:39.109Z,55.43
2017-11-08T15:55:09.390Z,54.37
2017-11-08T15:57:39.317Z,54.23
2017-11-08T16:00:09.157Z,55.30
2017-11-08T16:02:39.824Z,58.13
2017-11-08T16:05:09.654Z,60.93
2017-11-08T16:07:39.502Z,58.40
2017-11-08T16:10:09.415Z,56.20
2017-11-08T16:12:44.320Z,63.53
2017-11-08T16:15:14.158Z,66.03
2017-11-08T16:17:44.007Z,60.10
2017-11-08T16:20:16.662Z,58.13
2017-11-08T16:22:46.534Z,57.87
2017-11-08T16:25:16.353Z,61.97
2017-11-08T16:27:46.218Z,57.00
2017-11-08T16:30:16.071Z,60.80
2017-11-08T16:32:45.925Z,63.37
2017-11-08T16:35:15.877Z,55.47
2017-11-08T16:37:45.764Z,59.00
2017-11-08T16:40:15.613Z,70.10
2017-11-08T16:42:45.708Z,66.20
2017-11-08T16:45:16.052Z,61.20
2017-11-08T16:47:46.021Z,57.53
2017-11-08T16:50:15.903Z,67.47
2017-11-08T16:52:46.035Z,62.50
2017-11-08T16:55:15.918Z,64.07
2017-11-08T16:57:45.760Z,64.17
2017-11-08T17:00:15.601Z,67.17
2017-11-08T17:02:45.429Z,60.83
2017-11-08T17:05:15.270Z,65.90
2017-11-08T17:07:45.105Z,55.43
2017-11-08T17:10:14.994Z,54.53
2017-11-08T17:12:44.826Z,56.17
2017-11-08T17:15:14.684Z,60.67
2017-11-08T17:17:44.529Z,63.93
2017-11-08T17:20:14.401Z,56.40
2017-11-08T17:22:44.231Z,57.80
2017-11-08T17:25:14.094Z,59.47
2017-11-08T17:27:43.941Z,56.93
2017-11-08T17:30:13.795Z,64.53
2017-11-08T17:32:43.636Z,62.93
2017-11-08T17:35:13.551Z,63.07
2017-11-08T17:37:43.388Z,65.90
2017-11-08T17:40:13.212Z,64.50
2017-11-08T17:42:43.061Z,57.57
2017-11-08T17:45:12.978Z,57.23
2017-11-08T17:47:42.829Z,64.00
2017-11-08T17:50:12.657Z,66.97
2017-11-08T17:52:42.514Z,59.47
2017-11-08T17:55:12.340Z,63.80
2017-11-08T17:57:42.191Z,57.40
2017-11-08T18:00:12.023Z,66.23
2017-11-08T18:02:41.908Z,57.17
2017-11-08T18:05:11.732Z,59.03
2017-11-08T18:07:41.695Z,55.87
2017-11-08T18:10:11.524Z,61.27
2017-11-08T18:12:41.393Z,66.93
2017-11-08T18:15:11.539Z,67.93
2017-11-08T18:17:41.375Z,60.87
2017-11-08T18:20:11.225Z,71.90
2017-11-08T18:22:41.054Z,62.50
2017-11-08T18:25:11.504Z,68.47
2017-11-08T18:27:41.323Z,56.90
2017-11-08T18:30:11.195Z,57.73
2017-11-08T18:32:41.064Z,57.77
2017-11-08T18:35:10.886Z,58.10
2017-11-08T18:37:40.743Z,63.77
2017-11-08T18:40:10.801Z,68.60
2017-11-08T18:42:40.651Z,65.03
2017-11-08T18:45:10.495Z,59.17
2017-11-08T18:47:40.323Z,58.33
2017-11-08T18:50:10.153Z,54.23
2017-11-08T18:52:40.019Z,57.77
2017-11-08T18:55:09.851Z,66.23
2017-11-08T18:57:40.033Z,57.67
2017-11-08T19:00:09.879Z,57.90
2017-11-08T19:02:39.713Z,62.23
2017-11-08T19:05:09.560Z,59.90
2017-11-08T19:07:39.384Z,49.97
2017-11-08T19:10:09.252Z,63.40
2017-11-08T19:12:39.072Z,63.47
2017-11-08T19:15:08.907Z,59.30
2017-11-08T19:17:39.148Z,60.17
2017-11-08T19:20:09.052Z,55.80
2017-11-08T19:22:39.281Z,53.23
2017-11-08T19:25:09.119Z,61.20
2017-11-08T19:27:38.942Z,56.73
2017-11-08T19:30:08.782Z,56.00
2017-11-08T19:32:38.639Z,59.37
2017-11-08T19:35:08.476Z,58.90
2017-11-08T19:37:38.487Z,64.50
2017-11-08T19:40:08.360Z,58.60
2017-11-08T19:42:38.198Z,61.17
2017-11-08T19:45:08.048Z,243.03
2017-11-08T19:47:37.913Z,198.40
2017-11-08T19:50:07.737Z,179.53
2017-11-08T19:52:37.648Z,65.90
2017-11-08T19:55:07.765Z,56.60
2017-11-08T19:57:37.590Z,60.23
2017-11-08T20:00:07.433Z,52.00
2017-11-08T20:02:37.378Z,54.77
2017-11-08T20:05:07.210Z,54.40
2017-11-08T20:07:37.151Z,64.47
2017-11-08T20:10:06.986Z,58.43
2017-11-08T20:12:36.826Z,56.47
2017-11-08T20:15:07.172Z,54.00
2017-11-08T20:17:37.552Z,56.07
2017-11-08T20:20:07.383Z,53.70
2017-11-08T20:22:37.238Z,56.20
2017-11-08T20:25:07.076Z,56.87
2017-11-08T20:27:36.928Z,54.90
2017-11-08T20:30:06.788Z,54.67
2017-11-08T20:32:37.110Z,58.00
2017-11-08T20:35:07.009Z,53.77
2017-11-08T20:37:36.972Z,50.90
2017-11-08T20:40:06.806Z,56.13
2017-11-08T20:42:36.711Z,53.43
2017-11-08T20:45:06.547Z,56.20
2017-11-08T20:47:36.428Z,51.33
2017-11-08T20:50:06.284Z,55.23
2017-11-08T20:52:36.127Z,57.47
2017-11-08T20:55:05.967Z,55.10
2017-11-08T20:57:35.825Z,53.50
2017-11-08T21:00:05.660Z,56.77
2017-11-08T21:02:35.539Z,56.60
2017-11-08T21:05:05.378Z,54.97
2017-11-08T21:07:35.664Z,58.03
2017-11-08T21:10:05.500Z,55.30
2017-11-08T21:12:35.371Z,55.70
2017-11-08T21:15:05.226Z,58.80
2017-11-08T21:17:35.073Z,56.47
2017-11-08T21:20:04.955Z,56.47
2017-11-08T21:22:34.769Z,58.57
2017-11-08T21:25:04.609Z,63.60
2017-11-08T21:27:34.451Z,64.97
2017-11-08T21:30:04.313Z,67.27
2017-11-08T21:32:34.131Z,60.47
2017-11-08T21:35:04.023Z,71.73
2017-11-08T21:37:33.895Z,63.23
2017-11-08T21:40:03.755Z,68.47
2017-11-08T21:42:33.573Z,66.20
2017-11-08T21:45:04.263Z,60.07
2017-11-08T21:47:34.083Z,61.93
2017-11-08T21:50:03.933Z,59.57
2017-11-08T21:52:33.769Z,58.33
2017-11-08T21:55:03.687Z,61.70
2017-11-08T21:57:33.594Z,58.43
2017-11-08T22:00:03.467Z,55.33
2017-11-08T22:02:33.357Z,62.87
2017-11-08T22:05:03.317Z,62.93
2017-11-08T22:07:33.315Z,58.37
2017-11-08T22:10:03.193Z,63.23
2017-11-08T22:12:33.048Z,57.60
2017-11-08T22:15:03.770Z,59.10
2017-11-08T22:17:33.610Z,60.47
2017-11-08T22:20:03.473Z,62.53
2017-11-08T22:22:33.311Z,61.27
2017-11-08T22:25:03.175Z,59.93
2017-11-08T22:27:33.171Z,54.87
2017-11-08T22:30:03.275Z,57.80
2017-11-08T22:32:33.081Z,64.27
2017-11-08T22:35:02.978Z,62.50
2017-11-08T22:37:32.792Z,63.30
2017-11-08T22:40:02.710Z,60.00
2017-11-08T22:42:32.561Z,58.77
2017-11-08T22:45:02.410Z,56.20
2017-11-08T22:47:32.325Z,60.40
2017-11-08T22:50:02.260Z,57.97
2017-11-08T22:52:32.323Z,61.10
2017-11-08T22:55:02.140Z,61.93
2017-11-08T22:57:31.998Z,56.07
2017-11-08T23:00:01.827Z,61.00
2017-11-08T23:02:32.619Z,57.83
2017-11-08T23:05:02.451Z,58.90
2017-11-08T23:07:32.317Z,60.67
2017-11-08T23:10:02.128Z,68.73
2017-11-08T23:12:31.979Z,57.20
2017-11-08T23:15:01.871Z,66.20
2017-11-08T23:17:31.691Z,60.60
2017-11-08T23:20:01.535Z,66.57
2017-11-08T23:22:31.396Z,62.50
2017-11-08T23:25:01.252Z,60.43
2017-11-08T23:27:31.084Z,63.97
2017-11-08T23:30:00.932Z,68.50
2017-11-08T23:32:30.780Z,65.93
2017-11-08T23:35:00.648Z,75.60
2017-11-08T23:37:30.463Z,67.80
2017-11-08T23:40:00.299Z,65.20
2017-11-08T23:42:30.166Z,68.30
2017-11-08T23:45:00.042Z,65.97
2017-11-08T23:47:29.998Z,64.93
2017-11-08T23:49:59.904Z,57.30
2017-11-08T23:52:29.766Z,57.83
2017-11-08T23:54:59.575Z,60.63
2017-11-08T23:57:29.425Z,60.57
